sensor_id;sensor_type;location;lat;lon;timestamp;P1;durP1;ratioP1;P2;durP2;ratioP2
24086;SDS011;22893;50.572;7.234;2022-09-21T00:01:26;6.83;;;2.58;;
24086;SDS011;22893;50.572;7.234;2022-09-21T00:03:57;6.20;;;2.40;;
24086;SDS011;22893;50.572;7.234;2022-09-21T00:06:27;7.55;;;2.62;;
24086;SDS011;22893;50.572;7.234;2022-09-21T00:08:56;5.42;;;2.55;;
24086;SDS011;22893;50.572;7.234;2022-09-21T00:11:26;6.37;;;2.45;;
24086;SDS011;22893;50.572;7.234;2022-09-21T00:13:56;7.30;;;2.37;;
24086;SDS011;22893;50.572;7.234;2022-09-21T00:16:27;4.10;;;2.60;;
24086;SDS011;22893;50.572;7.234;2022-09-21T00:18:56;5.12;;;2.02;;
24086;SDS011;22893;50.572;7.234;2022-09-21T00:21:24;4.50;;;2.02;;
24086;SDS011;22893;50.572;7.234;2022-09-21T00:23:52;4.67;;;1.90;;
24086;SDS011;22893;50.572;7.234;2022-09-21T00:26:21;6.47;;;2.45;;
24086;SDS011;22893;50.572;7.234;2022-09-21T00:28:55;6.10;;;2.45;;
24086;SDS011;22893;50.572;7.234;2022-09-21T00:31:24;7.47;;;2.80;;
24086;SDS011;22893;50.572;7.234;2022-09-21T00:33:53;6.80;;;1.92;;
24086;SDS011;22893;50.572;7.234;2022-09-21T00:36:22;7.22;;;2.20;;
24086;SDS011;22893;50.572;7.234;2022-09-21T00:38:52;7.03;;;2.55;;
24086;SDS011;22893;50.572;7.234;2022-09-21T00:41:21;6.12;;;2.20;;
24086;SDS011;22893;50.572;7.234;2022-09-21T00:46:57;5.12;;;2.12;;
24086;SDS011;22893;50.572;7.234;2022-09-21T00:49:26;5.83;;;2.10;;
24086;SDS011;22893;50.572;7.234;2022-09-21T00:51:55;5.80;;;2.30;;
24086;SDS011;22893;50.572;7.234;2022-09-21T00:54:26;6.35;;;2.22;;
24086;SDS011;22893;50.572;7.234;2022-09-21T00:56:55;4.65;;;2.25;;
24086;SDS011;22893;50.572;7.234;2022-09-21T00:59:26;4.47;;;1.92;;
24086;SDS011;22893;50.572;7.234;2022-09-21T01:01:55;5.05;;;1.95;;
24086;SDS011;22893;50.572;7.234;2022-09-21T01:04:23;5.67;;;2.02;;
24086;SDS011;22893;50.572;7.234;2022-09-21T01:06:53;6.75;;;2.20;;
24086;SDS011;22893;50.572;7.234;2022-09-21T01:09:22;4.65;;;1.95;;
24086;SDS011;22893;50.572;7.234;2022-09-21T01:25:40;5.50;;;3.33;;
24086;SDS011;22893;50.572;7.234;2022-09-21T01:30:56;6.47;;;2.15;;
24086;SDS011;22893;50.572;7.234;2022-09-21T01:33:30;6.08;;;2.45;;
24086;SDS011;22893;50.572;7.234;2022-09-21T01:36:00;4.80;;;2.08;;
24086;SDS011;22893;50.572;7.234;2022-09-21T01:38:30;4.60;;;1.85;;
24086;SDS011;22893;50.572;7.234;2022-09-21T01:41:01;4.58;;;1.77;;
24086;SDS011;22893;50.572;7.234;2022-09-21T01:43:37;3.90;;;2.05;;
24086;SDS011;22893;50.572;7.234;2022-09-21T01:46:02;7.58;;;1.95;;
24086;SDS011;22893;50.572;7.234;2022-09-21T01:48:33;4.45;;;1.85;;
24086;SDS011;22893;50.572;7.234;2022-09-21T01:51:03;2.83;;;1.77;;
24086;SDS011;22893;50.572;7.234;2022-09-21T01:53:38;2.72;;;1.65;;
24086;SDS011;22893;50.572;7.234;2022-09-21T02:01:41;4.03;;;2.00;;
24086;SDS011;22893;50.572;7.234;2022-09-21T02:04:12;2.90;;;1.57;;
24086;SDS011;22893;50.572;7.234;2022-09-21T02:06:42;3.85;;;1.45;;
24086;SDS011;22893;50.572;7.234;2022-09-21T02:09:11;4.05;;;1.45;;
24086;SDS011;22893;50.572;7.234;2022-09-21T02:14:26;5.10;;;1.57;;
24086;SDS011;22893;50.572;7.234;2022-09-21T02:17:04;4.65;;;1.55;;
24086;SDS011;22893;50.572;7.234;2022-09-21T02:19:52;4.53;;;1.82;;
24086;SDS011;22893;50.572;7.234;2022-09-21T02:22:37;4.40;;;1.75;;
24086;SDS011;22893;50.572;7.234;2022-09-21T02:25:20;4.20;;;1.55;;
24086;SDS011;22893;50.572;7.234;2022-09-21T02:28:00;3.77;;;1.30;;
24086;SDS011;22893;50.572;7.234;2022-09-21T02:30:33;4.25;;;2.05;;
24086;SDS011;22893;50.572;7.234;2022-09-21T02:33:10;3.80;;;1.52;;
24086;SDS011;22893;50.572;7.234;2022-09-21T02:38:41;4.03;;;1.30;;
24086;SDS011;22893;50.572;7.234;2022-09-21T02:41:24;4.25;;;1.60;;
24086;SDS011;22893;50.572;7.234;2022-09-21T02:44:00;2.67;;;1.20;;
24086;SDS011;22893;50.572;7.234;2022-09-21T02:49:13;4.40;;;1.82;;
24086;SDS011;22893;50.572;7.234;2022-09-21T02:51:49;4.37;;;1.60;;
24086;SDS011;22893;50.572;7.234;2022-09-21T02:54:20;2.62;;;1.27;;
24086;SDS011;22893;50.572;7.234;2022-09-21T02:56:49;3.05;;;1.40;;
24086;SDS011;22893;50.572;7.234;2022-09-21T02:59:18;6.08;;;1.40;;
24086;SDS011;22893;50.572;7.234;2022-09-21T03:01:48;2.87;;;1.40;;
24086;SDS011;22893;50.572;7.234;2022-09-21T03:04:17;4.15;;;1.57;;
24086;SDS011;22893;50.572;7.234;2022-09-21T03:06:46;2.08;;;1.00;;
24086;SDS011;22893;50.572;7.234;2022-09-21T03:09:13;2.08;;;1.12;;
24086;SDS011;22893;50.572;7.234;2022-09-21T03:11:41;4.05;;;1.75;;
24086;SDS011;22893;50.572;7.234;2022-09-21T03:14:09;3.20;;;1.30;;
24086;SDS011;22893;50.572;7.234;2022-09-21T03:16:37;2.33;;;1.10;;
24086;SDS011;22893;50.572;7.234;2022-09-21T03:19:04;2.92;;;1.20;;
24086;SDS011;22893;50.572;7.234;2022-09-21T03:21:32;2.55;;;1.25;;
24086;SDS011;22893;50.572;7.234;2022-09-21T03:23:59;4.03;;;1.07;;
24086;SDS011;22893;50.572;7.234;2022-09-21T03:26:27;2.65;;;1.35;;
24086;SDS011;22893;50.572;7.234;2022-09-21T03:28:54;3.55;;;1.30;;
24086;SDS011;22893;50.572;7.234;2022-09-21T03:31:22;3.37;;;1.27;;
24086;SDS011;22893;50.572;7.234;2022-09-21T03:33:49;2.85;;;1.37;;
24086;SDS011;22893;50.572;7.234;2022-09-21T03:36:17;6.17;;;1.30;;
24086;SDS011;22893;50.572;7.234;2022-09-21T03:38:45;12.60;;;3.17;;
24086;SDS011;22893;50.572;7.234;2022-09-21T03:41:13;4.35;;;1.42;;
24086;SDS011;22893;50.572;7.234;2022-09-21T03:43:40;4.12;;;2.00;;
24086;SDS011;22893;50.572;7.234;2022-09-21T03:46:08;3.00;;;1.30;;
24086;SDS011;22893;50.572;7.234;2022-09-21T03:48:36;4.05;;;1.10;;
24086;SDS011;22893;50.572;7.234;2022-09-21T03:51:05;4.22;;;1.60;;
24086;SDS011;22893;50.572;7.234;2022-09-21T03:53:32;2.22;;;1.32;;
24086;SDS011;22893;50.572;7.234;2022-09-21T03:56:00;6.05;;;2.15;;
24086;SDS011;22893;50.572;7.234;2022-09-21T03:58:28;4.50;;;1.65;;
24086;SDS011;22893;50.572;7.234;2022-09-21T04:00:59;4.00;;;1.50;;
24086;SDS011;22893;50.572;7.234;2022-09-21T04:03:28;3.47;;;1.40;;
24086;SDS011;22893;50.572;7.234;2022-09-21T04:05:56;3.77;;;1.67;;
24086;SDS011;22893;50.572;7.234;2022-09-21T04:08:23;2.80;;;1.30;;
24086;SDS011;22893;50.572;7.234;2022-09-21T04:10:51;10.08;;;1.52;;
24086;SDS011;22893;50.572;7.234;2022-09-21T04:13:21;10.82;;;2.00;;
24086;SDS011;22893;50.572;7.234;2022-09-21T04:15:50;5.50;;;1.65;;
24086;SDS011;22893;50.572;7.234;2022-09-21T04:18:17;9.85;;;1.85;;
24086;SDS011;22893;50.572;7.234;2022-09-21T04:20:45;4.67;;;1.75;;
24086;SDS011;22893;50.572;7.234;2022-09-21T04:23:12;5.47;;;1.75;;
24086;SDS011;22893;50.572;7.234;2022-09-21T04:25:40;6.67;;;1.82;;
24086;SDS011;22893;50.572;7.234;2022-09-21T04:28:09;2.83;;;1.27;;
24086;SDS011;22893;50.572;7.234;2022-09-21T04:30:37;2.80;;;1.27;;
24086;SDS011;22893;50.572;7.234;2022-09-21T04:33:05;5.30;;;1.80;;
24086;SDS011;22893;50.572;7.234;2022-09-21T04:35:32;4.47;;;1.35;;
24086;SDS011;22893;50.572;7.234;2022-09-21T04:38:00;4.33;;;1.60;;
24086;SDS011;22893;50.572;7.234;2022-09-21T04:40:28;1.92;;;1.00;;
24086;SDS011;22893;50.572;7.234;2022-09-21T04:42:56;9.28;;;1.20;;
24086;SDS011;22893;50.572;7.234;2022-09-21T04:45:23;3.45;;;1.20;;
24086;SDS011;22893;50.572;7.234;2022-09-21T04:47:51;5.08;;;1.12;;
24086;SDS011;22893;50.572;7.234;2022-09-21T04:50:18;1.95;;;1.10;;
24086;SDS011;22893;50.572;7.234;2022-09-21T04:52:46;3.22;;;1.30;;
24086;SDS011;22893;50.572;7.234;2022-09-21T04:55:13;2.77;;;1.60;;
24086;SDS011;22893;50.572;7.234;2022-09-21T04:57:42;3.15;;;1.20;;
24086;SDS011;22893;50.572;7.234;2022-09-21T05:00:10;5.22;;;1.50;;
24086;SDS011;22893;50.572;7.234;2022-09-21T05:02:38;4.47;;;1.40;;
24086;SDS011;22893;50.572;7.234;2022-09-21T05:05:05;2.92;;;1.32;;
24086;SDS011;22893;50.572;7.234;2022-09-21T05:07:33;4.83;;;1.37;;
24086;SDS011;22893;50.572;7.234;2022-09-21T05:10:01;2.58;;;1.37;;
24086;SDS011;22893;50.572;7.234;2022-09-21T05:12:34;4.55;;;1.12;;
24086;SDS011;22893;50.572;7.234;2022-09-21T05:14:58;2.00;;;1.10;;
24086;SDS011;22893;50.572;7.234;2022-09-21T05:17:27;4.60;;;1.30;;
24086;SDS011;22893;50.572;7.234;2022-09-21T05:19:55;11.63;;;1.20;;
24086;SDS011;22893;50.572;7.234;2022-09-21T05:22:22;2.52;;;1.35;;
24086;SDS011;22893;50.572;7.234;2022-09-21T05:24:50;3.10;;;1.40;;
24086;SDS011;22893;50.572;7.234;2022-09-21T05:27:17;2.70;;;1.20;;
24086;SDS011;22893;50.572;7.234;2022-09-21T05:29:45;2.83;;;1.30;;
24086;SDS011;22893;50.572;7.234;2022-09-21T05:34:55;4.45;;;1.70;;
24086;SDS011;22893;50.572;7.234;2022-09-21T05:37:43;4.37;;;1.57;;
24086;SDS011;22893;50.572;7.234;2022-09-21T05:40:21;3.25;;;1.92;;
24086;SDS011;22893;50.572;7.234;2022-09-21T05:42:49;7.58;;;1.70;;
24086;SDS011;22893;50.572;7.234;2022-09-21T05:45:17;7.83;;;1.52;;
24086;SDS011;22893;50.572;7.234;2022-09-21T05:50:59;4.47;;;2.00;;
24086;SDS011;22893;50.572;7.234;2022-09-21T05:53:42;2.20;;;1.35;;
24086;SDS011;22893;50.572;7.234;2022-09-21T06:02:17;3.33;;;1.47;;
24086;SDS011;22893;50.572;7.234;2022-09-21T06:04:55;4.15;;;1.37;;
24086;SDS011;22893;50.572;7.234;2022-09-21T06:07:23;7.53;;;1.40;;
24086;SDS011;22893;50.572;7.234;2022-09-21T06:09:51;4.08;;;1.45;;
24086;SDS011;22893;50.572;7.234;2022-09-21T06:12:18;4.28;;;2.20;;
24086;SDS011;22893;50.572;7.234;2022-09-21T06:14:46;4.55;;;1.40;;
24086;SDS011;22893;50.572;7.234;2022-09-21T06:17:13;3.65;;;1.35;;
24086;SDS011;22893;50.572;7.234;2022-09-21T06:19:41;3.72;;;1.65;;
24086;SDS011;22893;50.572;7.234;2022-09-21T06:22:09;4.10;;;1.27;;
24086;SDS011;22893;50.572;7.234;2022-09-21T06:24:36;4.00;;;1.25;;
24086;SDS011;22893;50.572;7.234;2022-09-21T06:27:06;3.67;;;2.45;;
24086;SDS011;22893;50.572;7.234;2022-09-21T06:29:33;5.75;;;1.65;;
24086;SDS011;22893;50.572;7.234;2022-09-21T06:32:01;3.35;;;1.85;;
24086;SDS011;22893;50.572;7.234;2022-09-21T06:34:29;4.70;;;2.17;;
24086;SDS011;22893;50.572;7.234;2022-09-21T06:36:57;4.58;;;1.77;;
24086;SDS011;22893;50.572;7.234;2022-09-21T06:39:24;4.33;;;1.67;;
24086;SDS011;22893;50.572;7.234;2022-09-21T06:41:52;5.08;;;1.40;;
24086;SDS011;22893;50.572;7.234;2022-09-21T06:44:20;3.42;;;1.80;;
24086;SDS011;22893;50.572;7.234;2022-09-21T06:46:47;5.33;;;1.82;;
24086;SDS011;22893;50.572;7.234;2022-09-21T06:49:15;9.58;;;3.40;;
24086;SDS011;22893;50.572;7.234;2022-09-21T06:51:42;8.00;;;2.15;;
24086;SDS011;22893;50.572;7.234;2022-09-21T06:54:10;2.80;;;1.62;;
24086;SDS011;22893;50.572;7.234;2022-09-21T06:56:37;2.65;;;1.12;;
24086;SDS011;22893;50.572;7.234;2022-09-21T06:59:06;5.22;;;1.67;;
24086;SDS011;22893;50.572;7.234;2022-09-21T07:01:34;6.30;;;1.50;;
24086;SDS011;22893;50.572;7.234;2022-09-21T07:04:02;3.80;;;1.67;;
24086;SDS011;22893;50.572;7.234;2022-09-21T07:06:29;5.53;;;1.62;;
24086;SDS011;22893;50.572;7.234;2022-09-21T07:08:57;4.97;;;1.52;;
24086;SDS011;22893;50.572;7.234;2022-09-21T07:11:25;3.08;;;1.40;;
24086;SDS011;22893;50.572;7.234;2022-09-21T07:13:53;3.70;;;1.47;;
24086;SDS011;22893;50.572;7.234;2022-09-21T07:16:22;4.80;;;1.50;;
24086;SDS011;22893;50.572;7.234;2022-09-21T07:18:50;5.53;;;1.25;;
24086;SDS011;22893;50.572;7.234;2022-09-21T07:21:17;3.12;;;1.50;;
24086;SDS011;22893;50.572;7.234;2022-09-21T07:23:45;2.27;;;1.40;;
24086;SDS011;22893;50.572;7.234;2022-09-21T07:26:12;3.75;;;1.45;;
24086;SDS011;22893;50.572;7.234;2022-09-21T07:28:40;3.45;;;1.50;;
24086;SDS011;22893;50.572;7.234;2022-09-21T07:31:11;5.92;;;1.40;;
24086;SDS011;22893;50.572;7.234;2022-09-21T07:33:41;4.33;;;1.55;;
24086;SDS011;22893;50.572;7.234;2022-09-21T07:36:11;3.77;;;1.25;;
24086;SDS011;22893;50.572;7.234;2022-09-21T07:38:39;5.05;;;1.62;;
24086;SDS011;22893;50.572;7.234;2022-09-21T07:41:09;4.03;;;2.05;;
24086;SDS011;22893;50.572;7.234;2022-09-21T07:43:39;4.85;;;1.45;;
24086;SDS011;22893;50.572;7.234;2022-09-21T07:46:07;3.52;;;1.40;;
24086;SDS011;22893;50.572;7.234;2022-09-21T07:48:37;4.70;;;2.05;;
24086;SDS011;22893;50.572;7.234;2022-09-21T07:51:07;5.30;;;1.82;;
24086;SDS011;22893;50.572;7.234;2022-09-21T07:53:54;5.95;;;1.95;;
24086;SDS011;22893;50.572;7.234;2022-09-21T07:56:23;3.90;;;1.77;;
24086;SDS011;22893;50.572;7.234;2022-09-21T07:58:51;9.18;;;1.87;;
24086;SDS011;22893;50.572;7.234;2022-09-21T08:01:31;3.83;;;2.00;;
24086;SDS011;22893;50.572;7.234;2022-09-21T08:04:09;3.30;;;1.30;;
24086;SDS011;22893;50.572;7.234;2022-09-21T08:06:37;4.33;;;1.90;;
24086;SDS011;22893;50.572;7.234;2022-09-21T08:09:07;3.77;;;1.55;;
24086;SDS011;22893;50.572;7.234;2022-09-21T08:11:34;7.40;;;2.00;;
24086;SDS011;22893;50.572;7.234;2022-09-21T08:14:08;7.33;;;1.92;;
24086;SDS011;22893;50.572;7.234;2022-09-21T08:16:38;4.10;;;2.15;;
24086;SDS011;22893;50.572;7.234;2022-09-21T08:19:06;6.67;;;1.98;;
24086;SDS011;22893;50.572;7.234;2022-09-21T08:21:33;5.45;;;1.55;;
24086;SDS011;22893;50.572;7.234;2022-09-21T08:24:01;4.87;;;2.10;;
24086;SDS011;22893;50.572;7.234;2022-09-21T08:26:28;5.80;;;1.98;;
24086;SDS011;22893;50.572;7.234;2022-09-21T08:28:56;5.90;;;2.02;;
24086;SDS011;22893;50.572;7.234;2022-09-21T08:31:24;6.15;;;2.47;;
24086;SDS011;22893;50.572;7.234;2022-09-21T08:33:53;11.10;;;2.20;;
24086;SDS011;22893;50.572;7.234;2022-09-21T08:36:22;4.47;;;1.98;;
24086;SDS011;22893;50.572;7.234;2022-09-21T08:38:50;6.92;;;2.35;;
24086;SDS011;22893;50.572;7.234;2022-09-21T08:41:22;7.42;;;1.90;;
24086;SDS011;22893;50.572;7.234;2022-09-21T08:46:21;7.03;;;2.05;;
24086;SDS011;22893;50.572;7.234;2022-09-21T08:51:29;4.60;;;2.15;;
24086;SDS011;22893;50.572;7.234;2022-09-21T08:53:59;5.75;;;2.20;;
24086;SDS011;22893;50.572;7.234;2022-09-21T08:56:48;3.05;;;1.67;;
24086;SDS011;22893;50.572;7.234;2022-09-21T08:59:15;3.67;;;1.82;;
24086;SDS011;22893;50.572;7.234;2022-09-21T09:01:48;3.58;;;1.75;;
24086;SDS011;22893;50.572;7.234;2022-09-21T09:17:47;6.80;;;2.12;;
24086;SDS011;22893;50.572;7.234;2022-09-21T09:20:38;4.87;;;2.05;;
24086;SDS011;22893;50.572;7.234;2022-09-21T09:23:31;7.87;;;2.05;;
24086;SDS011;22893;50.572;7.234;2022-09-21T09:26:09;4.60;;;2.25;;
24086;SDS011;22893;50.572;7.234;2022-09-21T09:31:22;3.72;;;1.85;;
24086;SDS011;22893;50.572;7.234;2022-09-21T09:36:26;4.33;;;2.17;;
24086;SDS011;22893;50.572;7.234;2022-09-21T09:38:55;4.83;;;2.00;;
24086;SDS011;22893;50.572;7.234;2022-09-21T09:47:14;5.92;;;2.20;;
24086;SDS011;22893;50.572;7.234;2022-09-21T09:52:29;5.33;;;2.25;;
24086;SDS011;22893;50.572;7.234;2022-09-21T09:55:04;4.92;;;1.82;;
24086;SDS011;22893;50.572;7.234;2022-09-21T09:57:37;5.58;;;2.00;;
24086;SDS011;22893;50.572;7.234;2022-09-21T10:00:05;5.50;;;2.05;;
24086;SDS011;22893;50.572;7.234;2022-09-21T10:02:45;5.97;;;2.30;;
24086;SDS011;22893;50.572;7.234;2022-09-21T10:05:22;5.42;;;1.75;;
24086;SDS011;22893;50.572;7.234;2022-09-21T10:07:48;6.58;;;2.02;;
24086;SDS011;22893;50.572;7.234;2022-09-21T10:10:21;5.05;;;2.05;;
24086;SDS011;22893;50.572;7.234;2022-09-21T10:12:50;4.37;;;2.05;;
24086;SDS011;22893;50.572;7.234;2022-09-21T10:15:19;4.42;;;2.30;;
24086;SDS011;22893;50.572;7.234;2022-09-21T10:17:56;5.62;;;2.22;;
24086;SDS011;22893;50.572;7.234;2022-09-21T10:20:25;5.60;;;2.02;;
24086;SDS011;22893;50.572;7.234;2022-09-21T10:22:54;5.05;;;2.00;;
24086;SDS011;22893;50.572;7.234;2022-09-21T10:25:24;5.20;;;1.98;;
24086;SDS011;22893;50.572;7.234;2022-09-21T10:27:53;7.20;;;2.05;;
24086;SDS011;22893;50.572;7.234;2022-09-21T10:30:32;4.47;;;1.77;;
24086;SDS011;22893;50.572;7.234;2022-09-21T10:33:05;6.08;;;2.30;;
24086;SDS011;22893;50.572;7.234;2022-09-21T10:35:33;4.97;;;1.95;;
24086;SDS011;22893;50.572;7.234;2022-09-21T10:38:13;5.50;;;2.30;;
24086;SDS011;22893;50.572;7.234;2022-09-21T10:41:03;4.50;;;1.80;;
24086;SDS011;22893;50.572;7.234;2022-09-21T10:46:02;5.05;;;2.37;;
24086;SDS011;22893;50.572;7.234;2022-09-21T10:48:30;5.78;;;2.35;;
24086;SDS011;22893;50.572;7.234;2022-09-21T10:50:58;3.90;;;1.90;;
24086;SDS011;22893;50.572;7.234;2022-09-21T10:53:29;5.00;;;2.22;;
24086;SDS011;22893;50.572;7.234;2022-09-21T10:56:03;4.75;;;1.98;;
24086;SDS011;22893;50.572;7.234;2022-09-21T10:58:35;4.35;;;2.10;;
24086;SDS011;22893;50.572;7.234;2022-09-21T11:01:19;3.77;;;1.67;;
24086;SDS011;22893;50.572;7.234;2022-09-21T11:03:56;5.75;;;2.00;;
24086;SDS011;22893;50.572;7.234;2022-09-21T11:06:29;3.12;;;1.90;;
24086;SDS011;22893;50.572;7.234;2022-09-21T11:09:02;5.15;;;2.25;;
24086;SDS011;22893;50.572;7.234;2022-09-21T11:16:55;4.20;;;2.05;;
24086;SDS011;22893;50.572;7.234;2022-09-21T11:19:39;6.83;;;1.67;;
24086;SDS011;22893;50.572;7.234;2022-09-21T11:22:20;5.05;;;1.98;;
24086;SDS011;22893;50.572;7.234;2022-09-21T11:27:45;3.90;;;1.55;;
24086;SDS011;22893;50.572;7.234;2022-09-21T11:30:16;3.92;;;1.80;;
24086;SDS011;22893;50.572;7.234;2022-09-21T11:35:44;7.92;;;2.15;;
24086;SDS011;22893;50.572;7.234;2022-09-21T11:46:28;5.30;;;1.92;;
24086;SDS011;22893;50.572;7.234;2022-09-21T11:57:42;4.95;;;1.62;;
24086;SDS011;22893;50.572;7.234;2022-09-21T12:00:25;3.77;;;1.70;;
24086;SDS011;22893;50.572;7.234;2022-09-21T12:06:02;6.47;;;2.00;;
24086;SDS011;22893;50.572;7.234;2022-09-21T12:08:49;4.15;;;1.50;;
24086;SDS011;22893;50.572;7.234;2022-09-21T12:11:39;6.17;;;2.22;;
24086;SDS011;22893;50.572;7.234;2022-09-21T12:22:25;6.40;;;1.60;;
24086;SDS011;22893;50.572;7.234;2022-09-21T12:24:53;6.28;;;1.90;;
24086;SDS011;22893;50.572;7.234;2022-09-21T12:30:16;4.00;;;1.52;;
24086;SDS011;22893;50.572;7.234;2022-09-21T12:35:41;3.20;;;1.75;;
24086;SDS011;22893;50.572;7.234;2022-09-21T12:38:24;4.03;;;1.77;;
24086;SDS011;22893;50.572;7.234;2022-09-21T12:44:25;4.80;;;2.27;;
24086;SDS011;22893;50.572;7.234;2022-09-21T12:46:30;4.65;;;1.40;;
24086;SDS011;22893;50.572;7.234;2022-09-21T12:49:07;5.90;;;1.87;;
24086;SDS011;22893;50.572;7.234;2022-09-21T12:51:40;4.97;;;1.40;;
24086;SDS011;22893;50.572;7.234;2022-09-21T12:54:30;3.98;;;1.65;;
24086;SDS011;22893;50.572;7.234;2022-09-21T12:56:50;4.17;;;1.75;;
24086;SDS011;22893;50.572;7.234;2022-09-21T12:59:26;4.72;;;1.47;;
24086;SDS011;22893;50.572;7.234;2022-09-21T13:04:54;3.70;;;1.57;;
24086;SDS011;22893;50.572;7.234;2022-09-21T13:10:44;3.35;;;1.77;;
24086;SDS011;22893;50.572;7.234;2022-09-21T13:13:26;6.05;;;2.00;;
24086;SDS011;22893;50.572;7.234;2022-09-21T13:15:56;3.60;;;1.55;;
24086;SDS011;22893;50.572;7.234;2022-09-21T13:21:14;4.67;;;1.62;;
24086;SDS011;22893;50.572;7.234;2022-09-21T13:23:58;5.95;;;1.75;;
24086;SDS011;22893;50.572;7.234;2022-09-21T13:29:28;3.35;;;1.20;;
24086;SDS011;22893;50.572;7.234;2022-09-21T13:31:51;3.60;;;1.60;;
24086;SDS011;22893;50.572;7.234;2022-09-21T13:34:26;2.85;;;1.30;;
24086;SDS011;22893;50.572;7.234;2022-09-21T13:43:07;6.83;;;1.20;;
24086;SDS011;22893;50.572;7.234;2022-09-21T13:44:56;2.95;;;1.07;;
24086;SDS011;22893;50.572;7.234;2022-09-21T13:47:38;2.02;;;0.90;;
24086;SDS011;22893;50.572;7.234;2022-09-21T13:50:22;2.12;;;0.50;;
24086;SDS011;22893;50.572;7.234;2022-09-21T13:52:51;2.05;;;0.80;;
24086;SDS011;22893;50.572;7.234;2022-09-21T13:55:30;3.42;;;0.88;;
24086;SDS011;22893;50.572;7.234;2022-09-21T13:58:15;0.93;;;0.50;;
24086;SDS011;22893;50.572;7.234;2022-09-21T14:00:53;2.67;;;0.80;;
24086;SDS011;22893;50.572;7.234;2022-09-21T14:03:32;1.95;;;0.90;;
24086;SDS011;22893;50.572;7.234;2022-09-21T14:06:18;1.17;;;0.70;;
24086;SDS011;22893;50.572;7.234;2022-09-21T14:08:53;1.15;;;0.45;;
24086;SDS011;22893;50.572;7.234;2022-09-21T14:11:40;0.50;;;0.40;;
24086;SDS011;22893;50.572;7.234;2022-09-21T14:32:51;2.62;;;0.60;;
24086;SDS011;22893;50.572;7.234;2022-09-21T14:35:35;0.30;;;0.30;;
24086;SDS011;22893;50.572;7.234;2022-09-21T14:38:04;3.22;;;0.93;;
24086;SDS011;22893;50.572;7.234;2022-09-21T14:40:36;3.77;;;0.80;;
24086;SDS011;22893;50.572;7.234;2022-09-21T14:43:11;1.25;;;0.50;;
24086;SDS011;22893;50.572;7.234;2022-09-21T14:48:37;0.90;;;0.42;;
24086;SDS011;22893;50.572;7.234;2022-09-21T14:59:28;0.50;;;0.40;;
24086;SDS011;22893;50.572;7.234;2022-09-21T15:02:14;4.72;;;0.65;;
24086;SDS011;22893;50.572;7.234;2022-09-21T15:10:29;2.35;;;0.40;;
24086;SDS011;22893;50.572;7.234;2022-09-21T15:19:13;1.90;;;0.40;;
24086;SDS011;22893;50.572;7.234;2022-09-21T15:21:46;1.32;;;0.42;;
24086;SDS011;22893;50.572;7.234;2022-09-21T15:24:25;4.55;;;0.62;;
24086;SDS011;22893;50.572;7.234;2022-09-21T15:27:09;1.55;;;0.93;;
24086;SDS011;22893;50.572;7.234;2022-09-21T15:29:40;3.55;;;0.65;;
24086;SDS011;22893;50.572;7.234;2022-09-21T15:32:36;2.30;;;0.60;;
24086;SDS011;22893;50.572;7.234;2022-09-21T15:35:02;1.57;;;0.45;;
24086;SDS011;22893;50.572;7.234;2022-09-21T15:37:35;1.20;;;0.55;;
24086;SDS011;22893;50.572;7.234;2022-09-21T15:40:05;2.92;;;0.60;;
24086;SDS011;22893;50.572;7.234;2022-09-21T15:42:37;2.27;;;0.45;;
24086;SDS011;22893;50.572;7.234;2022-09-21T15:45:15;2.42;;;0.40;;
24086;SDS011;22893;50.572;7.234;2022-09-21T15:47:44;0.60;;;0.37;;
24086;SDS011;22893;50.572;7.234;2022-09-21T15:50:17;6.62;;;0.53;;
24086;SDS011;22893;50.572;7.234;2022-09-21T15:52:44;3.80;;;0.40;;
24086;SDS011;22893;50.572;7.234;2022-09-21T15:55:16;1.65;;;0.60;;
24086;SDS011;22893;50.572;7.234;2022-09-21T15:57:55;1.27;;;0.50;;
24086;SDS011;22893;50.572;7.234;2022-09-21T16:02:56;3.65;;;0.50;;
24086;SDS011;22893;50.572;7.234;2022-09-21T16:05:32;1.10;;;0.53;;
24086;SDS011;22893;50.572;7.234;2022-09-21T16:08:05;4.08;;;0.90;;
24086;SDS011;22893;50.572;7.234;2022-09-21T16:10:36;1.98;;;1.22;;
24086;SDS011;22893;50.572;7.234;2022-09-21T16:13:24;3.95;;;0.80;;
24086;SDS011;22893;50.572;7.234;2022-09-21T16:16:08;4.03;;;1.10;;
24086;SDS011;22893;50.572;7.234;2022-09-21T16:21:30;1.30;;;0.80;;
24086;SDS011;22893;50.572;7.234;2022-09-21T16:24:18;3.65;;;1.07;;
24086;SDS011;22893;50.572;7.234;2022-09-21T16:26:57;1.35;;;0.88;;
24086;SDS011;22893;50.572;7.234;2022-09-21T16:29:38;2.22;;;1.07;;
24086;SDS011;22893;50.572;7.234;2022-09-21T16:35:42;3.77;;;0.70;;
24086;SDS011;22893;50.572;7.234;2022-09-21T16:37:52;1.67;;;0.90;;
24086;SDS011;22893;50.572;7.234;2022-09-21T16:40:24;17.57;;;8.28;;
24086;SDS011;22893;50.572;7.234;2022-09-21T16:42:53;19.67;;;9.65;;
24086;SDS011;22893;50.572;7.234;2022-09-21T16:45:22;23.92;;;8.98;;
24086;SDS011;22893;50.572;7.234;2022-09-21T16:47:51;19.32;;;7.62;;
24086;SDS011;22893;50.572;7.234;2022-09-21T16:50:19;15.72;;;7.53;;
24086;SDS011;22893;50.572;7.234;2022-09-21T16:52:46;18.87;;;7.65;;
24086;SDS011;22893;50.572;7.234;2022-09-21T16:55:16;21.77;;;6.92;;
24086;SDS011;22893;50.572;7.234;2022-09-21T16:57:47;16.50;;;6.72;;
24086;SDS011;22893;50.572;7.234;2022-09-21T17:00:15;25.48;;;6.25;;
24086;SDS011;22893;50.572;7.234;2022-09-21T17:02:47;18.67;;;6.58;;
24086;SDS011;22893;50.572;7.234;2022-09-21T17:05:14;12.43;;;5.05;;
24086;SDS011;22893;50.572;7.234;2022-09-21T17:07:53;16.93;;;4.85;;
24086;SDS011;22893;50.572;7.234;2022-09-21T17:10:22;13.85;;;4.55;;
24086;SDS011;22893;50.572;7.234;2022-09-21T17:12:54;15.15;;;4.97;;
24086;SDS011;22893;50.572;7.234;2022-09-21T17:15:22;16.40;;;5.10;;
24086;SDS011;22893;50.572;7.234;2022-09-21T17:17:51;14.78;;;3.83;;
24086;SDS011;22893;50.572;7.234;2022-09-21T17:22:58;6.62;;;3.33;;
24086;SDS011;22893;50.572;7.234;2022-09-21T17:25:28;12.33;;;3.25;;
24086;SDS011;22893;50.572;7.234;2022-09-21T17:27:58;10.28;;;3.22;;
24086;SDS011;22893;50.572;7.234;2022-09-21T17:30:26;15.28;;;3.20;;
24086;SDS011;22893;50.572;7.234;2022-09-21T17:32:54;17.25;;;3.62;;
24086;SDS011;22893;50.572;7.234;2022-09-21T17:35:39;9.50;;;2.95;;
24086;SDS011;22893;50.572;7.234;2022-09-21T17:38:07;10.45;;;2.85;;
24086;SDS011;22893;50.572;7.234;2022-09-21T17:40:35;9.10;;;3.30;;
24086;SDS011;22893;50.572;7.234;2022-09-21T17:43:05;15.00;;;3.87;;
24086;SDS011;22893;50.572;7.234;2022-09-21T17:45:55;7.95;;;2.77;;
24086;SDS011;22893;50.572;7.234;2022-09-21T17:48:25;7.97;;;2.83;;
24086;SDS011;22893;50.572;7.234;2022-09-21T17:50:53;7.83;;;2.42;;
24086;SDS011;22893;50.572;7.234;2022-09-21T17:53:21;6.40;;;2.47;;
24086;SDS011;22893;50.572;7.234;2022-09-21T17:58:52;7.75;;;2.10;;
24086;SDS011;22893;50.572;7.234;2022-09-21T18:01:37;11.85;;;2.87;;
24086;SDS011;22893;50.572;7.234;2022-09-21T18:04:07;11.25;;;2.40;;
24086;SDS011;22893;50.572;7.234;2022-09-21T18:06:36;16.35;;;1.95;;
24086;SDS011;22893;50.572;7.234;2022-09-21T18:09:04;6.97;;;2.72;;
24086;SDS011;22893;50.572;7.234;2022-09-21T18:11:38;13.85;;;2.98;;
24086;SDS011;22893;50.572;7.234;2022-09-21T18:19:24;7.25;;;2.65;;
24086;SDS011;22893;50.572;7.234;2022-09-21T18:22:02;12.40;;;2.40;;
24086;SDS011;22893;50.572;7.234;2022-09-21T18:24:32;9.33;;;2.95;;
24086;SDS011;22893;50.572;7.234;2022-09-21T18:26:59;6.80;;;2.10;;
24086;SDS011;22893;50.572;7.234;2022-09-21T18:29:28;5.60;;;1.92;;
24086;SDS011;22893;50.572;7.234;2022-09-21T18:46:15;11.05;;;1.95;;
24086;SDS011;22893;50.572;7.234;2022-09-21T18:48:46;9.83;;;2.40;;
24086;SDS011;22893;50.572;7.234;2022-09-21T18:51:41;6.92;;;2.37;;
24086;SDS011;22893;50.572;7.234;2022-09-21T18:54:22;5.92;;;1.45;;